sensor_id;sensor_type;location;lat;lon;timestamp;P1;durP1;ratioP1;P2;durP2;ratioP2
81868;SDS011;71320;52.252;13.382;2023-07-22T00:03:28;1.17;;;0.95;;
81868;SDS011;71320;52.252;13.382;2023-07-22T00:08:30;1.00;;;0.90;;
81868;SDS011;71320;52.252;13.382;2023-07-22T00:13:33;1.23;;;0.60;;
81868;SDS011;71320;52.252;13.382;2023-07-22T00:18:36;1.15;;;0.82;;
81868;SDS011;71320;52.252;13.382;2023-07-22T00:23:38;0.90;;;0.82;;
81868;SDS011;71320;52.252;13.382;2023-07-22T00:28:41;1.40;;;0.93;;
81868;SDS011;71320;52.252;13.382;2023-07-22T00:33:43;0.88;;;0.82;;
81868;SDS011;71320;52.252;13.382;2023-07-22T00:38:45;1.60;;;0.90;;
81868;SDS011;71320;52.252;13.382;2023-07-22T00:43:48;0.95;;;0.80;;
81868;SDS011;71320;52.252;13.382;2023-07-22T00:48:50;0.80;;;0.80;;
81868;SDS011;71320;52.252;13.382;2023-07-22T00:53:52;0.88;;;0.73;;
81868;SDS011;71320;52.252;13.382;2023-07-22T00:58:55;1.20;;;0.88;;
81868;SDS011;71320;52.252;13.382;2023-07-22T01:03:57;1.35;;;0.90;;
81868;SDS011;71320;52.252;13.382;2023-07-22T01:08:59;1.33;;;0.90;;
81868;SDS011;71320;52.252;13.382;2023-07-22T01:14:02;0.82;;;0.73;;
81868;SDS011;71320;52.252;13.382;2023-07-22T01:19:04;1.05;;;0.95;;
81868;SDS011;71320;52.252;13.382;2023-07-22T01:24:09;1.55;;;1.40;;
81868;SDS011;71320;52.252;13.382;2023-07-22T01:29:11;1.27;;;0.88;;
81868;SDS011;71320;52.252;13.382;2023-07-22T01:34:13;2.33;;;0.98;;
81868;SDS011;71320;52.252;13.382;2023-07-22T01:39:16;0.93;;;0.80;;
81868;SDS011;71320;52.252;13.382;2023-07-22T01:44:19;1.65;;;1.02;;
81868;SDS011;71320;52.252;13.382;2023-07-22T01:49:20;0.93;;;0.80;;
81868;SDS011;71320;52.252;13.382;2023-07-22T01:54:25;1.13;;;1.00;;
81868;SDS011;71320;52.252;13.382;2023-07-22T01:59:27;1.20;;;0.88;;
81868;SDS011;71320;52.252;13.382;2023-07-22T02:04:29;1.67;;;0.80;;
81868;SDS011;71320;52.252;13.382;2023-07-22T02:09:32;0.60;;;0.60;;
81868;SDS011;71320;52.252;13.382;2023-07-22T02:14:34;1.45;;;0.60;;
81868;SDS011;71320;52.252;13.382;2023-07-22T02:19:37;0.82;;;0.82;;
81868;SDS011;71320;52.252;13.382;2023-07-22T02:24:40;0.98;;;0.85;;
81868;SDS011;71320;52.252;13.382;2023-07-22T02:29:41;1.38;;;0.80;;
81868;SDS011;71320;52.252;13.382;2023-07-22T02:34:43;1.08;;;0.77;;
81868;SDS011;71320;52.252;13.382;2023-07-22T02:39:46;0.75;;;0.63;;
81868;SDS011;71320;52.252;13.382;2023-07-22T02:44:48;0.93;;;0.85;;
81868;SDS011;71320;52.252;13.382;2023-07-22T02:49:49;0.90;;;0.80;;
81868;SDS011;71320;52.252;13.382;2023-07-22T02:55:06;0.90;;;0.80;;
81868;SDS011;71320;52.252;13.382;2023-07-22T03:00:10;1.42;;;1.05;;
81868;SDS011;71320;52.252;13.382;2023-07-22T03:05:13;1.67;;;0.90;;
81868;SDS011;71320;52.252;13.382;2023-07-22T03:10:16;0.90;;;0.75;;
81868;SDS011;71320;52.252;13.382;2023-07-22T03:15:18;1.52;;;1.10;;
81868;SDS011;71320;52.252;13.382;2023-07-22T03:20:21;0.93;;;0.73;;
81868;SDS011;71320;52.252;13.382;2023-07-22T03:25:24;0.98;;;0.70;;
81868;SDS011;71320;52.252;13.382;2023-07-22T03:30:26;1.85;;;0.70;;
81868;SDS011;71320;52.252;13.382;2023-07-22T03:35:27;1.40;;;1.13;;
81868;SDS011;71320;52.252;13.382;2023-07-22T03:40:31;0.95;;;0.60;;
81868;SDS011;71320;52.252;13.382;2023-07-22T03:45:33;0.75;;;0.60;;
81868;SDS011;71320;52.252;13.382;2023-07-22T03:50:35;2.30;;;1.10;;
81868;SDS011;71320;52.252;13.382;2023-07-22T03:55:38;0.85;;;0.60;;
81868;SDS011;71320;52.252;13.382;2023-07-22T04:00:39;1.02;;;0.90;;
81868;SDS011;71320;52.252;13.382;2023-07-22T04:05:41;1.67;;;0.95;;
81868;SDS011;71320;52.252;13.382;2023-07-22T04:10:51;1.02;;;0.90;;
81868;SDS011;71320;52.252;13.382;2023-07-22T04:15:53;0.98;;;0.82;;
81868;SDS011;71320;52.252;13.382;2023-07-22T04:20:55;1.00;;;0.90;;
81868;SDS011;71320;52.252;13.382;2023-07-22T04:26:01;4.47;;;1.10;;
81868;SDS011;71320;52.252;13.382;2023-07-22T04:31:05;0.80;;;0.80;;
81868;SDS011;71320;52.252;13.382;2023-07-22T04:36:09;1.45;;;0.80;;
81868;SDS011;71320;52.252;13.382;2023-07-22T04:41:12;1.17;;;0.90;;
81868;SDS011;71320;52.252;13.382;2023-07-22T04:46:15;0.90;;;0.90;;
81868;SDS011;71320;52.252;13.382;2023-07-22T04:51:16;0.60;;;0.52;;
81868;SDS011;71320;52.252;13.382;2023-07-22T04:56:19;1.08;;;0.80;;
81868;SDS011;71320;52.252;13.382;2023-07-22T05:01:21;1.40;;;0.82;;
81868;SDS011;71320;52.252;13.382;2023-07-22T05:06:23;0.70;;;0.68;;
81868;SDS011;71320;52.252;13.382;2023-07-22T05:11:26;1.23;;;0.70;;
81868;SDS011;71320;52.252;13.382;2023-07-22T05:16:28;1.25;;;0.80;;
81868;SDS011;71320;52.252;13.382;2023-07-22T05:21:29;1.20;;;0.65;;
81868;SDS011;71320;52.252;13.382;2023-07-22T05:26:32;1.58;;;0.80;;
81868;SDS011;71320;52.252;13.382;2023-07-22T05:31:34;0.82;;;0.80;;
81868;SDS011;71320;52.252;13.382;2023-07-22T05:36:36;1.50;;;0.90;;
81868;SDS011;71320;52.252;13.382;2023-07-22T05:41:39;1.70;;;0.82;;
81868;SDS011;71320;52.252;13.382;2023-07-22T05:46:41;1.98;;;0.80;;
81868;SDS011;71320;52.252;13.382;2023-07-22T05:51:42;1.30;;;0.90;;
81868;SDS011;71320;52.252;13.382;2023-07-22T05:56:45;0.93;;;0.80;;
81868;SDS011;71320;52.252;13.382;2023-07-22T06:01:48;1.00;;;0.80;;
81868;SDS011;71320;52.252;13.382;2023-07-22T06:06:50;1.30;;;0.88;;
81868;SDS011;71320;52.252;13.382;2023-07-22T06:11:53;0.80;;;0.80;;
81868;SDS011;71320;52.252;13.382;2023-07-22T06:16:55;1.23;;;0.80;;
81868;SDS011;71320;52.252;13.382;2023-07-22T06:21:56;1.20;;;0.90;;
81868;SDS011;71320;52.252;13.382;2023-07-22T06:26:59;2.28;;;1.40;;
81868;SDS011;71320;52.252;13.382;2023-07-22T06:32:01;0.68;;;0.65;;
81868;SDS011;71320;52.252;13.382;2023-07-22T06:37:03;1.98;;;0.98;;
81868;SDS011;71320;52.252;13.382;2023-07-22T06:42:07;1.10;;;1.00;;
81868;SDS011;71320;52.252;13.382;2023-07-22T06:47:08;1.30;;;0.93;;
81868;SDS011;71320;52.252;13.382;2023-07-22T06:52:10;1.00;;;0.77;;
81868;SDS011;71320;52.252;13.382;2023-07-22T06:57:13;2.22;;;1.08;;
81868;SDS011;71320;52.252;13.382;2023-07-22T07:02:14;1.02;;;0.85;;
81868;SDS011;71320;52.252;13.382;2023-07-22T07:07:16;1.25;;;0.93;;
81868;SDS011;71320;52.252;13.382;2023-07-22T07:12:19;1.42;;;0.80;;
81868;SDS011;71320;52.252;13.382;2023-07-22T07:17:22;0.70;;;0.70;;
81868;SDS011;71320;52.252;13.382;2023-07-22T07:22:23;1.00;;;0.80;;
81868;SDS011;71320;52.252;13.382;2023-07-22T07:27:26;1.30;;;1.08;;
81868;SDS011;71320;52.252;13.382;2023-07-22T07:32:28;1.27;;;0.90;;
81868;SDS011;71320;52.252;13.382;2023-07-22T07:37:31;1.23;;;0.90;;
81868;SDS011;71320;52.252;13.382;2023-07-22T07:42:34;1.73;;;1.20;;
81868;SDS011;71320;52.252;13.382;2023-07-22T07:47:35;1.27;;;0.80;;
81868;SDS011;71320;52.252;13.382;2023-07-22T07:52:37;0.70;;;0.70;;
81868;SDS011;71320;52.252;13.382;2023-07-22T07:57:40;1.20;;;1.00;;
81868;SDS011;71320;52.252;13.382;2023-07-22T08:02:42;1.83;;;1.00;;
81868;SDS011;71320;52.252;13.382;2023-07-22T08:07:44;0.77;;;0.70;;
81868;SDS011;71320;52.252;13.382;2023-07-22T08:12:47;1.23;;;0.82;;
81868;SDS011;71320;52.252;13.382;2023-07-22T08:17:48;1.38;;;0.80;;
81868;SDS011;71320;52.252;13.382;2023-07-22T08:22:50;1.20;;;0.90;;
81868;SDS011;71320;52.252;13.382;2023-07-22T08:27:53;1.30;;;0.80;;
81868;SDS011;71320;52.252;13.382;2023-07-22T08:32:55;1.55;;;1.10;;
81868;SDS011;71320;52.252;13.382;2023-07-22T08:37:56;1.85;;;1.08;;
81868;SDS011;71320;52.252;13.382;2023-07-22T08:43:00;1.08;;;0.80;;
81868;SDS011;71320;52.252;13.382;2023-07-22T08:48:03;0.90;;;0.65;;
81868;SDS011;71320;52.252;13.382;2023-07-22T08:53:07;1.58;;;0.98;;
81868;SDS011;71320;52.252;13.382;2023-07-22T08:58:11;1.25;;;1.00;;
81868;SDS011;71320;52.252;13.382;2023-07-22T09:03:13;1.00;;;0.80;;
81868;SDS011;71320;52.252;13.382;2023-07-22T09:08:15;1.98;;;0.90;;
81868;SDS011;71320;52.252;13.382;2023-07-22T09:13:19;1.00;;;0.80;;
81868;SDS011;71320;52.252;13.382;2023-07-22T09:18:22;0.88;;;0.80;;
81868;SDS011;71320;52.252;13.382;2023-07-22T09:23:33;1.15;;;0.70;;
81868;SDS011;71320;52.252;13.382;2023-07-22T09:28:48;1.23;;;0.90;;
81868;SDS011;71320;52.252;13.382;2023-07-22T09:33:50;1.13;;;1.00;;
81868;SDS011;71320;52.252;13.382;2023-07-22T09:39:00;1.00;;;0.90;;
81868;SDS011;71320;52.252;13.382;2023-07-22T09:44:06;1.27;;;0.90;;
81868;SDS011;71320;52.252;13.382;2023-07-22T09:49:12;2.10;;;0.98;;
81868;SDS011;71320;52.252;13.382;2023-07-22T09:54:13;1.13;;;0.88;;
81868;SDS011;71320;52.252;13.382;2023-07-22T09:59:17;1.45;;;0.88;;
81868;SDS011;71320;52.252;13.382;2023-07-22T10:04:20;1.70;;;0.88;;
81868;SDS011;71320;52.252;13.382;2023-07-22T10:09:26;1.58;;;0.88;;
81868;SDS011;71320;52.252;13.382;2023-07-22T10:14:32;1.27;;;0.90;;
81868;SDS011;71320;52.252;13.382;2023-07-22T10:19:34;1.75;;;1.10;;
81868;SDS011;71320;52.252;13.382;2023-07-22T10:24:36;1.00;;;0.82;;
81868;SDS011;71320;52.252;13.382;2023-07-22T10:29:43;1.55;;;1.10;;
81868;SDS011;71320;52.252;13.382;2023-07-22T10:34:47;1.33;;;1.00;;
81868;SDS011;71320;52.252;13.382;2023-07-22T10:39:48;1.08;;;0.98;;
81868;SDS011;71320;52.252;13.382;2023-07-22T10:44:52;1.30;;;1.00;;
81868;SDS011;71320;52.252;13.382;2023-07-22T10:49:53;1.08;;;0.98;;
81868;SDS011;71320;52.252;13.382;2023-07-22T10:55:13;1.48;;;0.95;;
81868;SDS011;71320;52.252;13.382;2023-07-22T11:00:19;2.20;;;1.10;;
81868;SDS011;71320;52.252;13.382;2023-07-22T11:05:22;1.48;;;1.25;;
81868;SDS011;71320;52.252;13.382;2023-07-22T11:10:53;3.55;;;1.17;;
81868;SDS011;71320;52.252;13.382;2023-07-22T11:16:00;2.03;;;1.17;;
81868;SDS011;71320;52.252;13.382;2023-07-22T11:21:02;1.88;;;1.42;;
81868;SDS011;71320;52.252;13.382;2023-07-22T11:26:07;1.40;;;1.30;;
81868;SDS011;71320;52.252;13.382;2023-07-22T11:31:11;1.20;;;1.00;;
81868;SDS011;71320;52.252;13.382;2023-07-22T11:36:12;1.75;;;1.10;;
81868;SDS011;71320;52.252;13.382;2023-07-22T11:41:14;1.70;;;1.30;;
81868;SDS011;71320;52.252;13.382;2023-07-22T11:46:17;6.43;;;1.30;;
81868;SDS011;71320;52.252;13.382;2023-07-22T11:51:19;1.23;;;1.08;;
81868;SDS011;71320;52.252;13.382;2023-07-22T11:56:22;1.67;;;1.23;;
81868;SDS011;71320;52.252;13.382;2023-07-22T12:01:27;1.70;;;1.20;;
81868;SDS011;71320;52.252;13.382;2023-07-22T12:06:33;1.65;;;1.30;;
81868;SDS011;71320;52.252;13.382;2023-07-22T12:11:35;1.40;;;1.13;;
81868;SDS011;71320;52.252;13.382;2023-07-22T12:16:39;1.48;;;1.25;;
81868;SDS011;71320;52.252;13.382;2023-07-22T12:21:41;2.00;;;1.50;;
81868;SDS011;71320;52.252;13.382;2023-07-22T12:26:43;2.22;;;1.65;;
81868;SDS011;71320;52.252;13.382;2023-07-22T12:31:46;1.92;;;1.40;;
81868;SDS011;71320;52.252;13.382;2023-07-22T12:36:47;1.50;;;1.20;;
81868;SDS011;71320;52.252;13.382;2023-07-22T12:41:49;2.25;;;1.50;;
81868;SDS011;71320;52.252;13.382;2023-07-22T12:46:52;1.90;;;1.38;;
81868;SDS011;71320;52.252;13.382;2023-07-22T12:51:54;1.30;;;1.15;;
81868;SDS011;71320;52.252;13.382;2023-07-22T12:56:55;2.30;;;1.45;;
81868;SDS011;71320;52.252;13.382;2023-07-22T13:01:58;1.83;;;1.52;;
81868;SDS011;71320;52.252;13.382;2023-07-22T13:07:00;2.15;;;1.60;;
81868;SDS011;71320;52.252;13.382;2023-07-22T13:12:02;2.28;;;1.45;;
81868;SDS011;71320;52.252;13.382;2023-07-22T13:17:05;2.25;;;1.38;;
81868;SDS011;71320;52.252;13.382;2023-07-22T13:22:07;2.28;;;1.85;;
81868;SDS011;71320;52.252;13.382;2023-07-22T13:27:08;1.67;;;1.48;;
81868;SDS011;71320;52.252;13.382;2023-07-22T13:32:12;2.33;;;1.63;;
81868;SDS011;71320;52.252;13.382;2023-07-22T13:37:13;2.10;;;1.70;;
81868;SDS011;71320;52.252;13.382;2023-07-22T13:42:16;2.00;;;1.50;;
81868;SDS011;71320;52.252;13.382;2023-07-22T13:47:19;2.53;;;1.75;;
81868;SDS011;71320;52.252;13.382;2023-07-22T13:52:20;2.03;;;1.63;;
81868;SDS011;71320;52.252;13.382;2023-07-22T13:57:22;2.38;;;2.00;;
81868;SDS011;71320;52.252;13.382;2023-07-22T14:02:25;1.85;;;1.50;;
81868;SDS011;71320;52.252;13.382;2023-07-22T14:07:27;1.90;;;1.70;;
81868;SDS011;71320;52.252;13.382;2023-07-22T14:12:28;2.38;;;2.10;;
81868;SDS011;71320;52.252;13.382;2023-07-22T14:17:32;2.33;;;1.70;;
81868;SDS011;71320;52.252;13.382;2023-07-22T14:22:33;1.95;;;1.80;;
81868;SDS011;71320;52.252;13.382;2023-07-22T14:27:37;1.88;;;1.30;;
81868;SDS011;71320;52.252;13.382;2023-07-22T14:32:40;2.42;;;1.85;;
81868;SDS011;71320;52.252;13.382;2023-07-22T14:37:42;2.55;;;2.25;;
81868;SDS011;71320;52.252;13.382;2023-07-22T14:42:45;2.30;;;1.73;;
81868;SDS011;71320;52.252;13.382;2023-07-22T14:47:48;1.55;;;1.45;;
81868;SDS011;71320;52.252;13.382;2023-07-22T14:52:50;1.92;;;1.70;;
81868;SDS011;71320;52.252;13.382;2023-07-22T14:57:51;2.20;;;1.85;;
81868;SDS011;71320;52.252;13.382;2023-07-22T15:02:54;3.22;;;1.80;;
81868;SDS011;71320;52.252;13.382;2023-07-22T15:07:56;2.30;;;2.10;;
81868;SDS011;71320;52.252;13.382;2023-07-22T15:12:58;2.30;;;1.80;;
81868;SDS011;71320;52.252;13.382;2023-07-22T15:18:01;2.47;;;1.85;;
81868;SDS011;71320;52.252;13.382;2023-07-22T15:23:02;2.22;;;1.95;;
81868;SDS011;71320;52.252;13.382;2023-07-22T15:28:04;2.22;;;1.75;;
81868;SDS011;71320;52.252;13.382;2023-07-22T15:33:07;1.40;;;1.23;;
81868;SDS011;71320;52.252;13.382;2023-07-22T15:38:08;2.05;;;1.85;;
81868;SDS011;71320;52.252;13.382;2023-07-22T15:43:10;2.13;;;1.60;;
81868;SDS011;71320;52.252;13.382;2023-07-22T15:48:13;1.98;;;1.65;;
81868;SDS011;71320;52.252;13.382;2023-07-22T15:53:14;2.20;;;1.80;;
81868;SDS011;71320;52.252;13.382;2023-07-22T15:58:16;2.33;;;1.80;;
81868;SDS011;71320;52.252;13.382;2023-07-22T16:03:21;1.95;;;1.70;;
81868;SDS011;71320;52.252;13.382;2023-07-22T16:08:22;2.13;;;1.60;;
81868;SDS011;71320;52.252;13.382;2023-07-22T16:13:24;2.42;;;1.83;;
81868;SDS011;71320;52.252;13.382;2023-07-22T16:18:27;2.20;;;2.00;;
81868;SDS011;71320;52.252;13.382;2023-07-22T16:23:29;2.13;;;1.67;;
81868;SDS011;71320;52.252;13.382;2023-07-22T16:28:32;3.28;;;2.05;;
81868;SDS011;71320;52.252;13.382;2023-07-22T16:33:35;1.70;;;1.60;;
81868;SDS011;71320;52.252;13.382;2023-07-22T16:38:37;2.20;;;1.98;;
81868;SDS011;71320;52.252;13.382;2023-07-22T16:43:38;1.88;;;1.50;;
81868;SDS011;71320;52.252;13.382;2023-07-22T16:48:41;1.67;;;1.58;;
81868;SDS011;71320;52.252;13.382;2023-07-22T16:53:43;2.10;;;1.90;;
81868;SDS011;71320;52.252;13.382;2023-07-22T16:58:45;3.58;;;1.90;;
81868;SDS011;71320;52.252;13.382;2023-07-22T17:03:48;2.25;;;1.88;;
81868;SDS011;71320;52.252;13.382;2023-07-22T17:08:49;2.10;;;1.67;;
81868;SDS011;71320;52.252;13.382;2023-07-22T17:13:51;2.78;;;2.15;;
81868;SDS011;71320;52.252;13.382;2023-07-22T17:18:54;2.85;;;2.08;;
81868;SDS011;71320;52.252;13.382;2023-07-22T17:23:56;3.15;;;2.00;;
81868;SDS011;71320;52.252;13.382;2023-07-22T17:28:57;2.15;;;1.77;;
81868;SDS011;71320;52.252;13.382;2023-07-22T17:34:00;2.55;;;1.90;;
81868;SDS011;71320;52.252;13.382;2023-07-22T17:39:02;2.85;;;2.20;;
81868;SDS011;71320;52.252;13.382;2023-07-22T17:44:04;2.50;;;1.88;;
81868;SDS011;71320;52.252;13.382;2023-07-22T17:49:07;2.78;;;2.25;;
81868;SDS011;71320;52.252;13.382;2023-07-22T17:54:09;2.58;;;2.22;;
81868;SDS011;71320;52.252;13.382;2023-07-22T17:59:11;3.92;;;2.10;;
81868;SDS011;71320;52.252;13.382;2023-07-22T18:04:14;2.60;;;2.25;;
81868;SDS011;71320;52.252;13.382;2023-07-22T18:09:16;2.10;;;1.90;;
81868;SDS011;71320;52.252;13.382;2023-07-22T18:14:17;2.47;;;1.88;;
81868;SDS011;71320;52.252;13.382;2023-07-22T18:19:20;2.40;;;1.90;;
81868;SDS011;71320;52.252;13.382;2023-07-22T18:24:22;2.30;;;2.03;;
81868;SDS011;71320;52.252;13.382;2023-07-22T18:29:23;2.00;;;1.80;;
81868;SDS011;71320;52.252;13.382;2023-07-22T18:34:26;2.17;;;1.80;;
81868;SDS011;71320;52.252;13.382;2023-07-22T18:39:28;2.70;;;2.03;;
81868;SDS011;71320;52.252;13.382;2023-07-22T18:44:29;3.75;;;1.80;;
81868;SDS011;71320;52.252;13.382;2023-07-22T18:49:34;3.05;;;2.08;;
81868;SDS011;71320;52.252;13.382;2023-07-22T18:54:36;2.45;;;1.88;;
81868;SDS011;71320;52.252;13.382;2023-07-22T18:59:37;2.03;;;1.63;;
81868;SDS011;71320;52.252;13.382;2023-07-22T19:04:40;1.90;;;1.60;;
81868;SDS011;71320;52.252;13.382;2023-07-22T19:09:42;2.55;;;1.95;;
81868;SDS011;71320;52.252;13.382;2023-07-22T19:14:43;2.00;;;1.80;;
81868;SDS011;71320;52.252;13.382;2023-07-22T19:19:46;2.03;;;1.70;;
81868;SDS011;71320;52.252;13.382;2023-07-22T19:24:48;2.05;;;1.80;;
81868;SDS011;71320;52.252;13.382;2023-07-22T19:29:49;2.20;;;2.00;;
81868;SDS011;71320;52.252;13.382;2023-07-22T19:34:52;2.35;;;1.58;;
81868;SDS011;71320;52.252;13.382;2023-07-22T19:39:54;2.20;;;1.80;;
81868;SDS011;71320;52.252;13.382;2023-07-22T19:44:55;2.35;;;2.15;;
81868;SDS011;71320;52.252;13.382;2023-07-22T19:49:58;1.83;;;1.63;;
81868;SDS011;71320;52.252;13.382;2023-07-22T19:55:00;2.15;;;1.83;;
81868;SDS011;71320;52.252;13.382;2023-07-22T20:00:02;2.33;;;2.13;;
81868;SDS011;71320;52.252;13.382;2023-07-22T20:05:13;2.40;;;1.98;;
81868;SDS011;71320;52.252;13.382;2023-07-22T20:10:15;3.38;;;1.88;;
81868;SDS011;71320;52.252;13.382;2023-07-22T20:15:17;2.38;;;2.13;;
81868;SDS011;71320;52.252;13.382;2023-07-22T20:20:20;2.60;;;2.40;;
81868;SDS011;71320;52.252;13.382;2023-07-22T20:25:22;2.38;;;2.15;;
81868;SDS011;71320;52.252;13.382;2023-07-22T20:30:24;2.90;;;2.55;;
81868;SDS011;71320;52.252;13.382;2023-07-22T20:35:28;2.65;;;2.03;;
81868;SDS011;71320;52.252;13.382;2023-07-22T20:40:30;2.00;;;1.80;;
81868;SDS011;71320;52.252;13.382;2023-07-22T20:45:32;2.55;;;2.13;;
81868;SDS011;71320;52.252;13.382;2023-07-22T20:50:35;2.40;;;2.03;;
81868;SDS011;71320;52.252;13.382;2023-07-22T20:55:36;3.10;;;2.35;;
81868;SDS011;71320;52.252;13.382;2023-07-22T21:00:40;2.83;;;2.15;;
81868;SDS011;71320;52.252;13.382;2023-07-22T21:05:43;2.30;;;1.95;;
81868;SDS011;71320;52.252;13.382;2023-07-22T21:10:53;2.22;;;1.83;;
81868;SDS011;71320;52.252;13.382;2023-07-22T21:15:55;2.65;;;2.33;;
81868;SDS011;71320;52.252;13.382;2023-07-22T21:20:58;2.80;;;1.92;;
81868;SDS011;71320;52.252;13.382;2023-07-22T21:25:59;3.17;;;2.45;;
81868;SDS011;71320;52.252;13.382;2023-07-22T21:31:01;2.20;;;1.90;;
81868;SDS011;71320;52.252;13.382;2023-07-22T21:36:08;2.40;;;2.20;;
81868;SDS011;71320;52.252;13.382;2023-07-22T21:41:11;2.83;;;2.55;;
81868;SDS011;71320;52.252;13.382;2023-07-22T21:46:12;2.58;;;2.20;;
81868;SDS011;71320;52.252;13.382;2023-07-22T21:51:15;3.42;;;2.85;;
81868;SDS011;71320;52.252;13.382;2023-07-22T21:56:17;2.55;;;2.03;;
81868;SDS011;71320;52.252;13.382;2023-07-22T22:01:18;2.78;;;2.47;;
81868;SDS011;71320;52.252;13.382;2023-07-22T22:06:21;3.58;;;3.13;;
81868;SDS011;71320;52.252;13.382;2023-07-22T22:11:23;3.65;;;2.35;;
81868;SDS011;71320;52.252;13.382;2023-07-22T22:16:24;2.88;;;2.55;;
81868;SDS011;71320;52.252;13.382;2023-07-22T22:21:27;4.03;;;2.40;;
81868;SDS011;71320;52.252;13.382;2023-07-22T22:26:29;2.88;;;2.47;;
81868;SDS011;71320;52.252;13.382;2023-07-22T22:31:32;2.72;;;2.42;;
81868;SDS011;71320;52.252;13.382;2023-07-22T22:36:35;2.67;;;2.28;;
81868;SDS011;71320;52.252;13.382;2023-07-22T22:41:37;3.00;;;2.63;;
81868;SDS011;71320;52.252;13.382;2023-07-22T22:46:38;2.55;;;2.13;;
81868;SDS011;71320;52.252;13.382;2023-07-22T22:51:41;2.97;;;2.33;;
81868;SDS011;71320;52.252;13.382;2023-07-22T22:56:43;3.65;;;2.55;;
81868;SDS011;71320;52.252;13.382;2023-07-22T23:01:44;3.80;;;2.53;;
81868;SDS011;71320;52.252;13.382;2023-07-22T23:06:47;4.13;;;2.92;;
81868;SDS011;71320;52.252;13.382;2023-07-22T23:11:49;2.60;;;2.35;;
81868;SDS011;71320;52.252;13.382;2023-07-22T23:16:50;3.05;;;2.60;;
81868;SDS011;71320;52.252;13.382;2023-07-22T23:21:53;3.22;;;2.42;;
81868;SDS011;71320;52.252;13.382;2023-07-22T23:26:55;5.03;;;2.67;;
81868;SDS011;71320;52.252;13.382;2023-07-22T23:31:56;3.10;;;2.75;;
81868;SDS011;71320;52.252;13.382;2023-07-22T23:36:59;3.10;;;2.55;;
81868;SDS011;71320;52.252;13.382;2023-07-22T23:42:01;3.35;;;2.42;;
81868;SDS011;71320;52.252;13.382;2023-07-22T23:47:02;2.70;;;2.38;;
81868;SDS011;71320;52.252;13.382;2023-07-22T23:52:06;3.53;;;2.72;;
81868;SDS011;71320;52.252;13.382;2023-07-22T23:57:08;2.92;;;2.53;;
